createdAt,value
2018-08-10T00:00:39.240Z,1.87
2018-08-10T00:03:09.154Z,2.10
2018-08-10T00:05:40.710Z,2.33
2018-08-10T00:08:12.724Z,2.15
2018-08-10T00:10:46.985Z,2.27
2018-08-10T00:13:32.149Z,2.05
2018-08-10T00:16:04.514Z,2.05
2018-08-10T00:18:36.635Z,2.00
2018-08-10T00:21:08.407Z,1.70
2018-08-10T00:23:36.985Z,1.80
2018-08-10T00:26:06.488Z,1.98
2018-08-10T00:28:35.169Z,1.47
2018-08-10T00:31:06.820Z,1.92
2018-08-10T00:33:41.054Z,1.52
2018-08-10T00:36:10.221Z,1.10
2018-08-10T00:38:39.888Z,1.67
2018-08-10T00:41:09.677Z,1.62
2018-08-10T00:43:38.475Z,1.70
2018-08-10T00:46:12.573Z,1.47
2018-08-10T00:48:42.601Z,1.60
2018-08-10T00:51:18.730Z,1.37
2018-08-10T00:53:56.328Z,1.32
2018-08-10T00:56:31.120Z,1.22
2018-08-10T00:59:05.496Z,1.80
2018-08-10T01:01:36.374Z,1.30
2018-08-10T01:04:05.646Z,1.55
2018-08-10T01:06:39.772Z,1.10
2018-08-10T01:09:10.652Z,1.65
2018-08-10T01:11:40.484Z,1.60
2018-08-10T01:14:12.151Z,1.35
2018-08-10T01:16:40.876Z,1.20
2018-08-10T01:19:15.212Z,1.27
2018-08-10T01:21:44.353Z,1.40
2018-08-10T01:24:18.492Z,1.62
2018-08-10T01:26:46.783Z,1.52
2018-08-10T01:29:20.882Z,1.77
2018-08-10T01:31:50.048Z,1.25
2018-08-10T01:34:18.658Z,1.95
2018-08-10T01:36:47.933Z,1.82
2018-08-10T01:39:17.201Z,1.40
2018-08-10T01:41:48.747Z,1.60
2018-08-10T01:44:23.772Z,1.40
2018-08-10T01:46:52.970Z,1.57
2018-08-10T01:49:24.910Z,1.27
2018-08-10T01:51:54.315Z,1.55
2018-08-10T01:54:22.975Z,1.62
2018-08-10T01:56:52.603Z,1.85
2018-08-10T01:59:25.226Z,1.30
2018-08-10T02:01:53.897Z,1.32
2018-08-10T02:04:22.589Z,1.40
2018-08-10T02:06:51.363Z,1.10
2018-08-10T02:09:19.901Z,1.30
2018-08-10T02:11:48.893Z,1.20
2018-08-10T02:14:17.733Z,1.52
2018-08-10T02:16:46.373Z,1.60
2018-08-10T02:19:15.071Z,1.60
2018-08-10T02:21:44.632Z,1.60
2018-08-10T02:24:13.655Z,2.00
2018-08-10T02:26:43.402Z,1.85
2018-08-10T02:29:12.057Z,1.87
2018-08-10T02:31:43.639Z,1.60
2018-08-10T02:34:13.233Z,1.57
2018-08-10T02:36:44.974Z,1.30
2018-08-10T02:39:16.542Z,1.32
2018-08-10T02:41:46.265Z,1.32
2018-08-10T02:44:14.931Z,1.65
2018-08-10T02:46:46.685Z,1.65
2018-08-10T02:49:18.306Z,1.65
2018-08-10T02:51:47.113Z,1.55
2018-08-10T02:54:15.856Z,1.50
2018-08-10T02:56:45.553Z,1.57
2018-08-10T02:59:19.868Z,1.85
2018-08-10T03:01:51.058Z,1.50
2018-08-10T03:04:20.769Z,1.57
2018-08-10T03:06:50.304Z,1.30
2018-08-10T03:09:18.979Z,1.47
2018-08-10T03:11:47.692Z,1.70
2018-08-10T03:14:17.475Z,1.40
2018-08-10T03:16:48.955Z,1.50
2018-08-10T03:19:17.676Z,1.60
2018-08-10T03:21:53.904Z,1.30
2018-08-10T03:24:23.016Z,1.50
2018-08-10T03:26:51.780Z,1.70
2018-08-10T03:29:20.896Z,1.50
2018-08-10T03:31:49.941Z,1.27
2018-08-10T03:34:24.120Z,1.40
2018-08-10T03:36:53.216Z,1.60
2018-08-10T03:39:27.379Z,1.70
2018-08-10T03:42:03.886Z,1.98
2018-08-10T03:44:33.056Z,1.95
2018-08-10T03:47:05.058Z,1.70
2018-08-10T03:49:34.291Z,1.90
2018-08-10T03:52:03.979Z,1.82
2018-08-10T03:54:40.019Z,1.90
2018-08-10T03:57:20.374Z,1.80
2018-08-10T03:59:54.382Z,1.62
2018-08-10T04:02:29.021Z,1.55
2018-08-10T04:05:00.392Z,1.80
2018-08-10T04:07:29.181Z,1.87
2018-08-10T04:10:01.022Z,1.98
2018-08-10T04:12:29.452Z,1.40
2018-08-10T04:15:14.322Z,2.05
2018-08-10T04:17:48.168Z,1.82
2018-08-10T04:20:19.633Z,1.90
2018-08-10T04:22:48.817Z,1.60
2018-08-10T04:25:22.537Z,1.25
2018-08-10T04:28:00.789Z,1.65
2018-08-10T04:30:34.940Z,1.92
2018-08-10T04:33:08.570Z,1.60
2018-08-10T04:35:37.743Z,1.42
2018-08-10T04:38:06.284Z,1.70
2018-08-10T04:42:09.645Z,1.52
2018-08-10T04:44:38.738Z,1.60
2018-08-10T04:47:07.273Z,1.60
2018-08-10T04:49:41.329Z,1.47
2018-08-10T04:52:15.957Z,1.92
2018-08-10T04:54:45.164Z,1.60
2018-08-10T04:57:19.280Z,1.70
2018-08-10T04:59:57.894Z,1.70
2018-08-10T05:02:26.945Z,1.57
2018-08-10T05:05:00.973Z,2.12
2018-08-10T05:07:34.676Z,1.75
2018-08-10T05:10:09.328Z,1.72
2018-08-10T05:12:39.238Z,2.02
2018-08-10T05:15:09.267Z,1.98
2018-08-10T05:17:39.077Z,2.12
2018-08-10T05:20:11.656Z,2.35
2018-08-10T05:23:00.029Z,2.47
2018-08-10T05:25:29.536Z,2.10
2018-08-10T05:31:09.884Z,3.20
2018-08-10T05:33:55.654Z,3.08
2018-08-10T05:36:45.255Z,3.62
2018-08-10T05:39:16.637Z,3.22
2018-08-10T05:41:45.381Z,3.30
2018-08-10T05:44:17.118Z,3.35
2018-08-10T05:46:45.717Z,4.08
2018-08-10T05:49:19.841Z,3.90
2018-08-10T05:51:54.476Z,3.60
2018-08-10T05:54:28.898Z,3.72
2018-08-10T05:57:11.134Z,4.00
2018-08-10T05:59:40.716Z,3.98
2018-08-10T06:02:09.519Z,3.98
2018-08-10T06:04:39.077Z,4.22
2018-08-10T06:07:10.960Z,3.85
2018-08-10T06:09:56.729Z,3.77
2018-08-10T06:12:26.350Z,3.62
2018-08-10T06:14:55.173Z,4.62
2018-08-10T06:17:24.757Z,4.75
2018-08-10T06:19:53.622Z,5.00
2018-08-10T06:22:22.109Z,5.65
2018-08-10T06:24:50.753Z,6.40
2018-08-10T06:27:22.561Z,6.78
2018-08-10T06:29:51.261Z,6.30
2018-08-10T06:32:25.592Z,5.42
2018-08-10T06:35:00.196Z,5.67
2018-08-10T06:40:22.064Z,6.17
2018-08-10T06:43:10.031Z,4.95
2018-08-10T06:45:44.986Z,4.42
2018-08-10T06:48:20.660Z,4.45
2018-08-10T06:50:57.281Z,4.92
2018-08-10T06:53:26.424Z,4.40
2018-08-10T06:55:55.265Z,4.80
2018-08-10T06:58:26.776Z,4.70
2018-08-10T07:00:56.579Z,4.10
2018-08-10T07:03:25.647Z,3.80
2018-08-10T07:06:03.528Z,4.00
2018-08-10T07:08:37.353Z,3.83
2018-08-10T07:11:11.917Z,3.83
2018-08-10T07:13:46.529Z,3.77
2018-08-10T07:16:14.800Z,4.20
2018-08-10T07:18:46.544Z,4.33
2018-08-10T07:21:15.253Z,5.55
2018-08-10T07:23:49.664Z,4.47
2018-08-10T07:26:22.170Z,4.50
2018-08-10T07:28:57.206Z,5.15
2018-08-10T07:31:30.470Z,4.90
2018-08-10T07:34:11.065Z,2.87
2018-08-10T07:36:42.772Z,2.25
2018-08-10T07:39:15.366Z,1.80
2018-08-10T07:41:43.838Z,1.98
2018-08-10T07:44:12.677Z,2.35
2018-08-10T07:46:46.876Z,2.05
2018-08-10T07:49:15.113Z,2.12
2018-08-10T07:51:47.519Z,2.15
2018-08-10T07:54:16.635Z,2.45
2018-08-10T07:56:50.957Z,2.60
2018-08-10T07:59:22.090Z,2.60
2018-08-10T08:01:56.381Z,2.40
2018-08-10T08:04:25.406Z,3.08
2018-08-10T08:06:56.552Z,3.30
2018-08-10T08:09:24.856Z,4.40
2018-08-10T08:11:54.706Z,4.70
2018-08-10T08:14:23.385Z,5.28
2018-08-10T08:16:57.668Z,5.12
2018-08-10T08:19:26.964Z,5.55
2018-08-10T08:22:08.321Z,6.00
2018-08-10T08:24:38.627Z,5.65
2018-08-10T08:27:07.232Z,5.92
2018-08-10T08:29:36.020Z,5.50
2018-08-10T08:32:11.226Z,7.87
2018-08-10T08:34:40.197Z,7.60
2018-08-10T08:37:09.113Z,8.23
2018-08-10T08:40:24.183Z,7.25
2018-08-10T08:42:54.195Z,1.60
2018-08-10T08:46:12.157Z,1.07
2018-08-10T08:48:47.271Z,1.00
2018-08-10T08:51:25.625Z,1.07
2018-08-10T08:54:06.265Z,1.00
2018-08-10T08:56:42.040Z,0.68
2018-08-10T08:59:11.182Z,0.62
2018-08-10T09:01:40.121Z,0.70
2018-08-10T09:04:28.061Z,0.72
2018-08-10T09:06:56.528Z,1.02
2018-08-10T09:09:34.355Z,1.10
2018-08-10T09:12:03.029Z,1.00
2018-08-10T09:14:41.237Z,1.07
2018-08-10T09:17:10.811Z,1.07
2018-08-10T09:19:52.009Z,1.35
2018-08-10T09:22:32.300Z,1.70
2018-08-10T09:25:05.207Z,1.67
2018-08-10T09:27:43.201Z,1.45
2018-08-10T09:30:30.421Z,1.65
2018-08-10T09:33:01.760Z,1.55
2018-08-10T09:35:30.429Z,1.50
2018-08-10T09:38:04.558Z,2.00
2018-08-10T09:40:34.306Z,1.72
2018-08-10T09:43:03.568Z,2.17
2018-08-10T09:45:32.282Z,1.75
2018-08-10T09:48:10.396Z,1.77
2018-08-10T09:50:39.668Z,2.12
2018-08-10T09:53:08.339Z,1.90
2018-08-10T09:55:40.091Z,1.30
2018-08-10T09:58:12.022Z,1.20
2018-08-10T10:00:47.711Z,1.65
2018-08-10T10:03:23.166Z,1.50
2018-08-10T10:05:52.769Z,1.42
2018-08-10T10:08:25.247Z,1.32
2018-08-10T10:10:59.812Z,1.42
2018-08-10T10:13:29.025Z,1.87
2018-08-10T10:16:03.254Z,1.40
2018-08-10T10:18:32.640Z,1.52
2018-08-10T10:21:01.099Z,1.60
2018-08-10T10:23:29.742Z,1.98
2018-08-10T10:26:01.434Z,2.17
2018-08-10T10:28:31.206Z,1.70
2018-08-10T10:31:02.676Z,1.65
2018-08-10T10:33:36.776Z,1.67
2018-08-10T10:36:06.016Z,1.10
2018-08-10T10:41:45.661Z,1.35
2018-08-10T10:44:32.186Z,1.30
2018-08-10T10:47:05.109Z,1.30
2018-08-10T10:49:39.717Z,1.30
2018-08-10T10:52:08.970Z,1.07
2018-08-10T10:54:38.681Z,1.00
2018-08-10T10:57:20.437Z,0.70
2018-08-10T11:00:08.770Z,1.00
2018-08-10T11:02:45.904Z,1.10
2018-08-10T11:05:20.170Z,1.07
2018-08-10T11:10:42.408Z,1.90
2018-08-10T11:13:29.062Z,1.42
2018-08-10T11:16:00.709Z,1.30
2018-08-10T11:18:39.234Z,1.22
2018-08-10T11:21:08.735Z,1.65
2018-08-10T11:23:37.210Z,1.80
2018-08-10T11:26:06.202Z,1.30
2018-08-10T11:28:34.700Z,1.45
2018-08-10T11:31:06.675Z,1.25
2018-08-10T11:33:35.334Z,1.62
2018-08-10T11:36:05.057Z,1.35
2018-08-10T11:38:33.836Z,1.47
2018-08-10T11:41:03.449Z,1.72
2018-08-10T11:43:35.130Z,1.82
2018-08-10T11:46:06.911Z,1.70
2018-08-10T11:48:35.697Z,1.70
2018-08-10T11:51:04.459Z,1.62
2018-08-10T11:53:33.930Z,1.77
2018-08-10T11:56:02.992Z,1.85
2018-08-10T11:58:31.364Z,1.65
2018-08-10T12:00:59.928Z,1.52
2018-08-10T12:03:29.505Z,1.00
2018-08-10T12:05:58.614Z,1.62
2018-08-10T12:08:27.196Z,1.50
2018-08-10T12:10:55.780Z,1.35
2018-08-10T12:13:25.569Z,1.22
2018-08-10T12:15:57.207Z,1.50
2018-08-10T12:19:50.300Z,1.55
2018-08-10T12:22:19.504Z,1.45
2018-08-10T12:24:48.168Z,1.30
2018-08-10T12:27:22.167Z,1.10
2018-08-10T12:30:03.480Z,1.40
2018-08-10T12:32:32.076Z,1.22
2018-08-10T12:35:06.121Z,1.37
2018-08-10T12:37:35.646Z,1.47
2018-08-10T12:40:04.438Z,1.75
2018-08-10T12:42:32.922Z,1.50
2018-08-10T12:45:02.494Z,1.62
2018-08-10T12:47:31.138Z,2.05
2018-08-10T12:49:59.941Z,1.72
2018-08-10T12:52:29.584Z,2.25
2018-08-10T12:54:58.583Z,1.72
2018-08-10T12:57:27.322Z,1.80
2018-08-10T12:59:55.851Z,1.30
2018-08-10T13:02:24.551Z,1.20
2018-08-10T13:04:53.300Z,1.40
2018-08-10T13:07:22.467Z,1.50
2018-08-10T13:09:51.894Z,1.30
2018-08-10T13:12:20.359Z,1.20
2018-08-10T13:14:52.062Z,1.20
2018-08-10T13:17:20.633Z,1.20
2018-08-10T13:19:49.373Z,1.25
2018-08-10T13:22:18.101Z,1.20
2018-08-10T13:24:47.119Z,1.17
2018-08-10T13:27:18.489Z,1.27
2018-08-10T13:29:47.325Z,1.65
2018-08-10T13:32:16.370Z,1.77
2018-08-10T13:34:45.456Z,1.80
2018-08-10T13:37:13.983Z,1.40
2018-08-10T13:39:42.651Z,1.30
2018-08-10T13:42:11.694Z,1.15
2018-08-10T13:44:39.985Z,1.20
2018-08-10T13:47:09.057Z,1.15
2018-08-10T13:49:37.570Z,0.90
2018-08-10T13:52:06.637Z,1.05
2018-08-10T13:54:34.969Z,1.35
2018-08-10T13:57:04.089Z,1.05
2018-08-10T13:59:32.458Z,1.10
2018-08-10T14:02:01.109Z,1.00
2018-08-10T14:04:29.639Z,1.15
2018-08-10T14:06:58.368Z,1.05
2018-08-10T14:09:27.143Z,1.20
2018-08-10T14:11:55.884Z,1.25
2018-08-10T14:14:24.561Z,1.47
2018-08-10T14:16:53.249Z,1.20
2018-08-10T14:19:22.014Z,1.30
2018-08-10T14:21:50.892Z,1.30
2018-08-10T14:24:19.422Z,1.40
2018-08-10T14:26:48.269Z,1.12
2018-08-10T14:29:16.748Z,1.30
2018-08-10T14:31:45.265Z,1.57
2018-08-10T14:34:14.228Z,1.40
2018-08-10T14:36:42.855Z,1.35
2018-08-10T14:39:13.337Z,1.75
2018-08-10T14:41:42.445Z,2.12
2018-08-10T14:44:10.912Z,1.40
2018-08-10T14:46:41.151Z,1.67
2018-08-10T14:49:10.190Z,1.37
2018-08-10T14:51:39.857Z,1.87
2018-08-10T14:54:08.736Z,1.72
2018-08-10T14:56:37.449Z,1.90
2018-08-10T14:59:06.789Z,1.98
2018-08-10T15:01:36.639Z,1.62
2018-08-10T15:04:06.879Z,1.60
2018-08-10T15:06:35.931Z,2.10
2018-08-10T15:09:08.087Z,1.50
2018-08-10T15:11:37.133Z,1.50
2018-08-10T15:14:06.906Z,2.00
2018-08-10T15:16:35.961Z,1.80
2018-08-10T15:19:04.606Z,2.40
2018-08-10T15:21:33.078Z,1.87
2018-08-10T15:24:03.034Z,2.12
2018-08-10T15:26:31.308Z,1.85
2018-08-10T15:29:03.087Z,2.10
2018-08-10T15:31:31.793Z,2.10
2018-08-10T15:34:00.321Z,2.47
2018-08-10T15:36:28.925Z,2.10
2018-08-10T15:38:57.702Z,2.30
2018-08-10T15:41:26.582Z,1.80
2018-08-10T15:43:56.389Z,2.02
2018-08-10T15:46:24.775Z,2.00
2018-08-10T15:48:53.627Z,1.95
2018-08-10T15:51:22.006Z,2.12
2018-08-10T15:53:50.611Z,1.90
2018-08-10T15:56:19.492Z,2.05
2018-08-10T15:58:48.142Z,1.90
2018-08-10T16:01:17.088Z,1.87
2018-08-10T16:04:18.413Z,1.57
2018-08-10T16:06:47.114Z,1.87
2018-08-10T16:09:15.677Z,1.72
2018-08-10T16:11:44.494Z,1.90
2018-08-10T16:14:13.300Z,1.90
2018-08-10T16:16:41.941Z,1.87
2018-08-10T16:19:12.033Z,1.75
2018-08-10T16:21:43.377Z,1.77
2018-08-10T16:24:12.025Z,1.92
2018-08-10T16:26:40.604Z,1.75
2018-08-10T16:29:10.393Z,1.40
2018-08-10T16:31:39.073Z,1.30
2018-08-10T16:34:08.787Z,1.20
2018-08-10T16:36:38.494Z,1.60
2018-08-10T16:39:10.083Z,1.30
2018-08-10T16:41:40.164Z,1.45
2018-08-10T16:44:09.904Z,1.37
2018-08-10T16:46:39.560Z,1.25
2018-08-10T16:49:15.627Z,1.45
2018-08-10T16:51:53.722Z,1.27
2018-08-10T16:54:23.503Z,1.37
2018-08-10T16:56:58.526Z,1.30
2018-08-10T16:59:29.811Z,1.50
2018-08-10T17:01:58.454Z,1.12
2018-08-10T17:04:26.909Z,1.37
2018-08-10T17:06:58.383Z,1.20
2018-08-10T17:09:27.067Z,1.32
2018-08-10T17:11:56.759Z,1.50
2018-08-10T17:14:25.308Z,1.30
2018-08-10T17:16:54.888Z,1.50
2018-08-10T17:19:24.674Z,1.55
2018-08-10T17:21:54.847Z,1.60
2018-08-10T17:24:24.014Z,1.92
2018-08-10T17:26:54.111Z,2.12
2018-08-10T17:29:23.369Z,2.10
2018-08-10T17:31:54.338Z,2.20
2018-08-10T17:34:25.993Z,2.33
2018-08-10T17:36:57.931Z,2.47
2018-08-10T17:39:32.729Z,2.50
2018-08-10T17:42:04.826Z,3.30
2018-08-10T17:44:33.660Z,3.90
2018-08-10T17:47:02.620Z,4.22
2018-08-10T17:49:31.854Z,4.35
2018-08-10T17:52:00.568Z,4.28
2018-08-10T17:54:29.097Z,4.90
2018-08-10T17:56:57.778Z,5.05
2018-08-10T17:59:26.366Z,5.62
2018-08-10T18:02:00.380Z,5.85
2018-08-10T18:04:29.701Z,5.53
2018-08-10T18:07:13.779Z,6.05
2018-08-10T18:09:45.129Z,5.90
2018-08-10T18:12:16.736Z,5.33
2018-08-10T18:14:46.490Z,4.92
2018-08-10T18:17:15.092Z,4.62
2018-08-10T18:19:49.359Z,5.22
2018-08-10T18:22:19.434Z,5.35
2018-08-10T18:24:48.331Z,4.90
2018-08-10T18:27:17.173Z,4.58
2018-08-10T18:29:58.497Z,4.58
2018-08-10T18:32:28.358Z,4.55
2018-08-10T18:34:57.099Z,4.03
2018-08-10T18:37:25.897Z,3.87
2018-08-10T18:39:56.101Z,4.60
2018-08-10T18:42:30.233Z,4.78
2018-08-10T18:44:59.570Z,4.25
2018-08-10T18:47:30.391Z,4.62
2018-08-10T18:49:59.181Z,4.58
2018-08-10T18:52:27.726Z,4.45
2018-08-10T18:54:56.333Z,3.50
2018-08-10T18:57:30.542Z,2.40
2018-08-10T18:59:59.727Z,2.35
2018-08-10T19:02:29.066Z,2.30
2018-08-10T19:04:57.774Z,1.82
2018-08-10T19:07:27.462Z,1.70
2018-08-10T19:09:56.267Z,2.00
2018-08-10T19:12:25.192Z,1.50
2018-08-10T19:14:55.422Z,1.55
2018-08-10T19:17:26.961Z,1.60
2018-08-10T19:19:55.376Z,1.30
2018-08-10T19:22:27.685Z,1.57
2018-08-10T19:24:57.752Z,1.50
2018-08-10T19:27:27.306Z,1.47
2018-08-10T19:29:55.866Z,1.50
2018-08-10T19:32:24.908Z,1.60
2018-08-10T19:34:53.202Z,1.22
2018-08-10T19:37:24.958Z,1.57
2018-08-10T19:39:54.826Z,1.37
2018-08-10T19:42:25.392Z,1.50
2018-08-10T19:44:55.092Z,1.40
2018-08-10T19:47:24.491Z,1.50
2018-08-10T19:49:54.732Z,1.67
2018-08-10T19:52:23.908Z,1.32
2018-08-10T19:54:57.886Z,1.55
2018-08-10T19:57:32.380Z,1.80
2018-08-10T20:00:01.537Z,1.55
2018-08-10T20:02:30.132Z,1.27
2018-08-10T20:04:58.770Z,1.17
2018-08-10T20:07:28.937Z,1.02
2018-08-10T20:09:58.110Z,1.55
2018-08-10T20:12:33.356Z,1.45
2018-08-10T20:15:09.924Z,1.65
2018-08-10T20:17:40.165Z,1.92
2018-08-10T20:22:49.133Z,1.98
2018-08-10T20:25:24.240Z,1.92
2018-08-10T20:28:00.659Z,2.00
2018-08-10T20:30:32.055Z,2.10
2018-08-10T20:33:00.793Z,1.85
2018-08-10T20:35:37.724Z,1.80
2018-08-10T20:38:12.057Z,1.77
2018-08-10T20:40:40.936Z,2.42
2018-08-10T20:43:09.737Z,1.95
2018-08-10T20:45:43.889Z,1.80
2018-08-10T20:48:12.279Z,1.92
2018-08-10T20:50:47.265Z,2.00
2018-08-10T20:53:31.839Z,1.85
2018-08-10T20:56:03.693Z,2.40
2018-08-10T20:58:35.283Z,1.85
2018-08-10T21:01:09.458Z,1.67
2018-08-10T21:03:41.060Z,1.90
2018-08-10T21:06:10.619Z,2.00
2018-08-10T21:08:51.097Z,1.90
2018-08-10T21:11:25.170Z,2.22
2018-08-10T21:13:54.129Z,2.62
2018-08-10T21:16:22.926Z,2.33
2018-08-10T21:20:20.741Z,2.05
2018-08-10T21:22:55.817Z,3.22
2018-08-10T21:25:32.352Z,2.42
2018-08-10T21:28:07.068Z,2.90
2018-08-10T21:30:36.245Z,2.12
2018-08-10T21:33:10.552Z,2.25
2018-08-10T21:35:41.756Z,1.80
2018-08-10T21:38:10.513Z,2.58
2018-08-10T21:40:39.168Z,2.33
2018-08-10T21:43:08.061Z,2.20
2018-08-10T21:45:36.895Z,2.67
2018-08-10T22:01:20.347Z,1.80
2018-08-10T22:03:49.005Z,2.37
2018-08-10T22:06:17.822Z,1.85
2018-08-10T22:08:46.497Z,2.00
2018-08-10T22:11:16.454Z,2.20
2018-08-10T22:13:53.627Z,2.30
2018-08-10T22:16:30.476Z,2.00
2018-08-10T22:19:05.485Z,2.10
2018-08-10T22:21:34.679Z,2.05
2018-08-10T22:24:04.031Z,2.02
2018-08-10T22:26:33.188Z,2.42
2018-08-10T22:29:04.989Z,2.45
2018-08-10T22:31:34.162Z,2.50
2018-08-10T22:34:03.946Z,2.30
2018-08-10T22:36:32.725Z,2.70
2018-08-10T22:39:01.616Z,2.52
2018-08-10T22:41:35.241Z,2.42
2018-08-10T22:44:12.988Z,2.45
2018-08-10T22:46:41.413Z,2.50
2018-08-10T22:49:10.962Z,2.80
2018-08-10T22:51:39.953Z,2.83
2018-08-10T22:54:08.900Z,3.02
2018-08-10T22:56:37.893Z,2.47
2018-08-10T22:59:06.185Z,2.77
2018-08-10T23:01:36.150Z,2.60
2018-08-10T23:04:04.663Z,2.60
2018-08-10T23:06:33.568Z,2.77
2018-08-10T23:09:04.838Z,2.17
2018-08-10T23:11:36.160Z,2.52
2018-08-10T23:14:05.096Z,2.15
2018-08-10T23:16:34.746Z,2.10
2018-08-10T23:19:03.403Z,2.40
2018-08-10T23:21:32.229Z,2.50
2018-08-10T23:24:03.831Z,2.33
2018-08-10T23:26:32.587Z,2.20
2018-08-10T23:29:01.594Z,2.10
2018-08-10T23:31:30.817Z,2.25
2018-08-10T23:34:05.008Z,2.20
2018-08-10T23:36:34.224Z,2.15
2018-08-10T23:39:06.145Z,2.30
2018-08-10T23:41:34.850Z,2.45
2018-08-10T23:44:03.479Z,2.40
2018-08-10T23:46:32.302Z,1.90
2018-08-10T23:49:01.876Z,2.27
2018-08-10T23:51:30.519Z,2.50
2018-08-10T23:53:59.292Z,2.37
2018-08-10T23:56:27.916Z,2.22
2018-08-10T23:58:56.808Z,3.02
